»·PEaware :: N48427 KIFP-KPSP

N48427 :: KIFP-KPSP

FLIGHT INFORMATION

Flight Status: Arrived
Operator: Privately registered:
United States
More flights under this callsign
Pilot: Kaleb W. (11686)
Aircraft: Unknown
(P28U)
More flights by this aircraft type
Origin: KIFP Laughlin/Bullhead Intl
United States
Destination: KPSP Palm Springs Intl
United States
More flights between these airports :: More routes between these airports
Route: +
File this flight plan on PilotEdge
Remarks:
Altitude:
(Current/Filed)
0ft
Speed:
(Current/Filed)
0kts
Departed: 06-Nov-19 02:56 PM
Arrived: 06-Nov-19 03:40 PM
Distance/Time
Traveled:
125nm/0:43
Distance/Time
To Go:
Arrived

Flight Plot

Page will automatically refresh every two minutes.

Flight plan parsing failed; only flown route is shown


Map Options




Map Legend


Flown Route
Filed Route
Departure Airport
Arrival Airport
Navaid (VOR, NDB)
Fix

Horizontal Profiles

Position Reports

Time Latitude Longitude Heading Altitude Ground
Speed
06-Nov-19 14:44 35.158610 -114.556014 266 704ft 0kts
06-Nov-19 14:45 35.158610 -114.556014 266 704ft 0kts
06-Nov-19 14:46 35.158610 -114.556014 266 704ft 0kts
06-Nov-19 14:47 35.158610 -114.556014 266 704ft 0kts
06-Nov-19 14:48 35.158365 -114.556500 187 704ft 14kts
06-Nov-19 14:49 35.155269 -114.557970 175 704ft 12kts
06-Nov-19 14:50 35.151412 -114.557708 175 704ft 15kts
06-Nov-19 14:51 35.146972 -114.557383 176 704ft 16kts
06-Nov-19 14:52 35.145874 -114.557700 248 704ft 0kts
06-Nov-19 14:53 35.145874 -114.557700 248 704ft 0kts
06-Nov-19 14:54 35.145871 -114.557709 248 704ft 1kts
06-Nov-19 14:55 35.150329 -114.558996 355 713ft 54kts
06-Nov-19 14:56 35.166334 -114.560986 349 1160ft 74kts
06-Nov-19 14:57 35.187375 -114.567072 335 2183ft 82kts
06-Nov-19 14:58 35.170023 -114.582925 188 3016ft 113kts
06-Nov-19 14:59 35.138915 -114.585375 196 3894ft 110kts
06-Nov-19 15:00 35.109189 -114.593514 217 4694ft 106kts
06-Nov-19 15:01 35.083846 -114.613934 212 5300ft 112kts
06-Nov-19 15:02 35.057827 -114.633635 212 5578ft 111kts
06-Nov-19 15:03 35.026715 -114.644952 201 6208ft 124kts
06-Nov-19 15:04 34.992665 -114.652179 193 6801ft 127kts
06-Nov-19 15:05 34.961572 -114.668348 218 7392ft 123kts
06-Nov-19 15:06 34.942787 -114.697985 297 7953ft 115kts
06-Nov-19 15:07 34.961683 -114.729279 292 8429ft 119kts
06-Nov-19 15:08 34.985581 -114.743752 29 8858ft 123kts
06-Nov-19 15:10 35.016695 -114.743001 326 9331ft 120kts
06-Nov-19 15:11 35.045688 -114.764879 326 9710ft 126kts
06-Nov-19 15:12 35.075543 -114.787767 326 9593ft 127kts
06-Nov-19 15:13 35.105400 -114.810786 326 9497ft 126kts
06-Nov-19 15:14 35.135078 -114.833680 325 9394ft 126kts
06-Nov-19 15:15 35.164732 -114.856579 325 9303ft 126kts
06-Nov-19 15:16 35.194320 -114.879450 325 9213ft 125kts
06-Nov-19 15:17 35.190405 -114.910742 209 9015ft 130kts
06-Nov-19 15:18 35.158523 -114.932078 212 8817ft 131kts
06-Nov-19 15:19 35.129877 -114.959380 226 8624ft 129kts
06-Nov-19 15:20 35.103883 -114.989976 226 8423ft 129kts
06-Nov-19 15:21 35.073971 -115.015619 215 8208ft 132kts
06-Nov-19 15:22 35.042145 -115.008058 102 7916ft 144kts
06-Nov-19 15:23 35.038008 -114.961521 121 7701ft 145kts
06-Nov-19 15:24 35.007825 -114.969667 198 7577ft 130kts
06-Nov-19 15:25 34.977079 -114.987470 225 7552ft 127kts
06-Nov-19 15:26 34.951659 -115.016569 226 7580ft 124kts
06-Nov-19 15:27 34.922896 -115.040048 221 7582ft 127kts
06-Nov-19 15:27 34.903168 -115.065040 232 7807ft 122kts
06-Nov-19 15:29 34.876799 -115.101426 231 8293ft 122kts
06-Nov-19 15:30 34.854065 -115.132532 231 8537ft 122kts
06-Nov-19 15:30 34.835027 -115.158515 232 8670ft 124kts
06-Nov-19 15:32 34.808232 -115.195045 232 8840ft 126kts
06-Nov-19 15:32 34.788597 -115.221796 232 8883ft 127kts
06-Nov-19 15:33 34.764527 -115.254550 232 8869ft 130kts
06-Nov-19 15:35 34.735536 -115.293982 231 8662ft 136kts
06-Nov-19 15:35 34.714516 -115.322510 231 8547ft 135kts
06-Nov-19 15:36 34.689463 -115.356482 231 8460ft 133kts
06-Nov-19 15:37 34.665209 -115.389330 231 8496ft 129kts
06-Nov-19 15:38 34.652466 -115.406586 231 8496ft 130kts
06-Nov-19 15:39 33.825705 -116.508751 269 419ft 0kts
06-Nov-19 15:51 33.825705 -116.508743 269 419ft 0kts

Navigation Log

Ident Type
Flight plan parsing failed, navigation log unavailable